createdAt,value
2018-08-11T01:00:36.469Z,42.49
2018-08-11T01:01:36.416Z,41.99
2018-08-11T01:02:36.404Z,42.47
2018-08-11T01:03:36.436Z,42.69
2018-08-11T01:04:36.382Z,42.69
2018-08-11T01:05:36.370Z,42.80
2018-08-11T01:06:36.361Z,43.02
2018-08-11T01:07:36.350Z,43.12
2018-08-11T01:08:36.396Z,43.52
2018-08-11T01:09:36.326Z,43.72
2018-08-11T01:10:36.315Z,43.32
2018-08-11T01:11:36.308Z,43.22
2018-08-11T01:12:36.295Z,43.42
2018-08-11T01:13:36.283Z,44.12
2018-08-11T01:14:36.325Z,44.00
2018-08-11T01:15:36.259Z,43.70
2018-08-11T01:16:36.247Z,44.10
2018-08-11T01:17:36.243Z,44.00
2018-08-11T01:18:36.225Z,43.40
2018-08-11T01:19:36.264Z,43.80
2018-08-11T01:20:36.208Z,43.60
2018-08-11T01:21:36.194Z,43.90
2018-08-11T01:22:36.182Z,43.80
2018-08-11T01:23:36.175Z,44.90
2018-08-11T01:24:36.205Z,45.30
2018-08-11T01:25:36.147Z,45.72
2018-08-11T01:26:36.145Z,45.80
2018-08-11T01:27:36.127Z,45.70
2018-08-11T01:28:36.126Z,46.62
2018-08-11T01:29:36.150Z,46.62
2018-08-11T01:30:36.096Z,46.53
2018-08-11T01:31:36.091Z,46.42
2018-08-11T01:32:36.074Z,47.63
2018-08-11T01:33:36.060Z,47.33
2018-08-11T01:34:36.102Z,47.53
2018-08-11T01:35:36.037Z,47.83
2018-08-11T01:36:36.028Z,48.03
2018-08-11T01:37:36.042Z,48.23
2018-08-11T01:38:36.007Z,47.93
2018-08-11T01:39:36.067Z,48.03
2018-08-11T01:40:35.992Z,48.23
2018-08-11T01:41:35.970Z,48.35
2018-08-11T01:42:35.968Z,47.75
2018-08-11T01:43:35.951Z,47.75
2018-08-11T01:44:35.982Z,47.35
2018-08-11T01:45:35.930Z,47.96
2018-08-11T01:46:35.927Z,47.96
2018-08-11T01:47:35.906Z,48.46
2018-08-11T01:48:35.916Z,48.05
2018-08-11T01:49:35.938Z,47.45
2018-08-11T01:50:35.871Z,48.25
2018-08-11T01:51:35.864Z,47.96
2018-08-11T01:52:35.864Z,48.05
2018-08-11T01:53:35.841Z,47.35
2018-08-11T01:54:35.877Z,46.95
2018-08-11T01:55:35.820Z,46.73
2018-08-11T01:56:35.811Z,46.55
2018-08-11T01:57:36.521Z,46.62
2018-08-11T01:58:35.784Z,45.53
2018-08-11T01:59:35.819Z,45.45
2018-08-11T02:00:35.768Z,45.14
2018-08-11T02:01:35.748Z,45.04
2018-08-11T02:02:35.741Z,45.04
2018-08-11T02:03:35.730Z,45.34
2018-08-11T02:04:35.766Z,45.34
2018-08-11T02:05:35.711Z,45.65
2018-08-11T02:06:35.693Z,45.25
2018-08-11T02:07:35.682Z,45.34
2018-08-11T02:08:35.672Z,45.47
2018-08-11T02:09:35.730Z,45.37
2018-08-11T02:10:35.650Z,45.47
2018-08-11T02:11:35.645Z,45.65
2018-08-11T02:12:35.631Z,44.84
2018-08-11T02:13:35.655Z,45.84
2018-08-11T02:14:35.662Z,45.25
2018-08-11T02:15:35.595Z,46.07
2018-08-11T02:16:35.583Z,46.15
2018-08-11T02:17:35.571Z,45.95
2018-08-11T02:18:35.573Z,45.84
2018-08-11T02:19:35.595Z,46.35
2018-08-11T02:20:35.541Z,45.65
2018-08-11T02:21:35.529Z,45.45
2018-08-11T02:22:35.520Z,46.35
2018-08-11T02:23:35.523Z,46.04
2018-08-11T02:24:35.542Z,45.75
2018-08-11T02:25:35.485Z,45.95
2018-08-11T02:26:35.479Z,45.75
2018-08-11T02:27:35.475Z,45.32
2018-08-11T02:28:35.454Z,45.75
2018-08-11T02:29:35.488Z,46.15
2018-08-11T02:30:35.428Z,46.25
2018-08-11T02:31:35.419Z,46.85
2018-08-11T02:32:35.409Z,46.65
2018-08-11T02:33:35.406Z,47.15
2018-08-11T02:34:35.435Z,46.77
2018-08-11T02:35:35.376Z,46.97
2018-08-11T02:36:35.367Z,46.97
2018-08-11T02:37:35.369Z,46.87
2018-08-11T02:38:35.342Z,47.00
2018-08-11T02:39:35.381Z,47.39
2018-08-11T02:40:35.325Z,47.09
2018-08-11T02:41:35.307Z,46.97
2018-08-11T02:42:35.300Z,46.49
2018-08-11T02:43:35.283Z,46.80
2018-08-11T02:44:35.319Z,46.47
2018-08-11T02:45:35.265Z,46.69
2018-08-11T02:46:35.253Z,46.49
2018-08-11T02:47:35.240Z,46.69
2018-08-11T02:48:35.232Z,47.09
2018-08-11T02:49:35.263Z,47.19
2018-08-11T02:50:35.212Z,46.89
2018-08-11T02:51:35.195Z,47.00
2018-08-11T02:52:35.185Z,47.00
2018-08-11T02:53:35.176Z,47.70
2018-08-11T02:54:35.211Z,47.67
2018-08-11T02:55:35.155Z,46.87
2018-08-11T02:56:35.143Z,46.77
2018-08-11T02:57:35.130Z,46.87
2018-08-11T02:58:35.118Z,46.97
2018-08-11T02:59:35.152Z,46.77
2018-08-11T03:00:35.096Z,46.67
2018-08-11T03:01:35.094Z,46.67
2018-08-11T03:02:35.080Z,46.87
2018-08-11T03:03:35.064Z,46.97
2018-08-11T03:04:35.112Z,47.07
2018-08-11T03:05:35.043Z,47.07
2018-08-11T03:06:35.030Z,46.89
2018-08-11T03:07:35.029Z,47.70
2018-08-11T03:08:35.007Z,47.80
2018-08-11T03:09:35.044Z,47.50
2018-08-11T03:10:34.987Z,48.20
2018-08-11T03:11:34.973Z,47.60
2018-08-11T03:12:34.966Z,48.10
2018-08-11T03:13:34.956Z,48.43
2018-08-11T03:14:34.984Z,48.10
2018-08-11T03:15:34.928Z,48.00
2018-08-11T03:16:34.917Z,48.22
2018-08-11T03:17:34.908Z,48.40
2018-08-11T03:18:34.896Z,48.52
2018-08-11T03:19:34.933Z,48.83
2018-08-11T03:20:34.877Z,47.62
2018-08-11T03:21:34.863Z,48.72
2018-08-11T03:22:34.857Z,49.22
2018-08-11T03:23:34.842Z,48.02
2018-08-11T03:24:34.883Z,49.02
2018-08-11T03:25:34.824Z,48.83
2018-08-11T03:26:34.810Z,48.12
2018-08-11T03:27:34.796Z,48.22
2018-08-11T03:28:34.788Z,49.05
2018-08-11T03:29:34.773Z,48.55
2018-08-11T03:30:34.815Z,48.14
2018-08-11T03:31:34.753Z,48.65
2018-08-11T03:32:34.742Z,48.75
2018-08-11T03:33:34.729Z,48.35
2018-08-11T03:34:34.717Z,48.44
2018-08-11T03:35:34.751Z,48.14
2018-08-11T03:36:34.698Z,48.37
2018-08-11T03:37:34.684Z,48.27
2018-08-11T03:38:34.676Z,48.87
2018-08-11T03:39:34.664Z,49.27
2018-08-11T03:40:34.698Z,49.07
2018-08-11T03:41:34.647Z,49.07
2018-08-11T03:42:34.640Z,49.19
2018-08-11T03:43:34.632Z,49.19
2018-08-11T03:44:34.607Z,48.79
2018-08-11T03:45:34.646Z,49.90
2018-08-11T03:46:34.593Z,49.50
2018-08-11T03:47:34.576Z,49.90
2018-08-11T03:48:34.573Z,49.42
2018-08-11T03:49:34.566Z,49.50
2018-08-11T03:50:34.592Z,49.22
2018-08-11T03:51:34.530Z,49.40
2018-08-11T03:52:34.566Z,49.93
2018-08-11T03:53:34.508Z,49.93
2018-08-11T03:54:34.500Z,49.93
2018-08-11T03:55:34.530Z,49.93
2018-08-11T03:56:34.472Z,50.43
2018-08-11T03:57:34.479Z,49.82
2018-08-11T03:58:34.451Z,49.82
2018-08-11T03:59:34.442Z,49.52
2018-08-11T04:00:34.479Z,49.82
2018-08-11T04:01:34.417Z,49.82
2018-08-11T04:02:34.407Z,49.73
2018-08-11T04:03:34.398Z,49.52
2018-08-11T04:04:34.390Z,49.62
2018-08-11T04:05:34.421Z,49.24
2018-08-11T04:06:34.390Z,49.32
2018-08-11T04:07:34.351Z,49.93
2018-08-11T04:08:34.339Z,49.32
2018-08-11T04:09:34.344Z,49.55
2018-08-11T04:10:34.362Z,49.52
2018-08-11T04:11:34.307Z,50.02
2018-08-11T04:12:34.317Z,49.82
2018-08-11T04:13:34.284Z,49.93
2018-08-11T04:14:34.279Z,49.62
2018-08-11T04:15:34.309Z,50.25
2018-08-11T04:16:34.250Z,49.42
2018-08-11T04:17:34.247Z,49.93
2018-08-11T04:18:34.227Z,50.35
2018-08-11T04:19:34.218Z,50.45
2018-08-11T04:20:34.254Z,51.16
2018-08-11T04:21:34.195Z,51.36
2018-08-11T04:22:34.183Z,51.36
2018-08-11T04:23:34.179Z,51.26
2018-08-11T04:24:34.162Z,51.16
2018-08-11T04:25:34.197Z,51.06
2018-08-11T04:26:34.139Z,50.96
2018-08-11T04:27:34.135Z,51.26
2018-08-11T04:28:34.119Z,51.36
2018-08-11T04:29:34.105Z,50.85
2018-08-11T04:30:34.140Z,51.36
2018-08-11T04:31:34.104Z,50.76
2018-08-11T04:32:34.072Z,51.76
2018-08-11T04:33:34.059Z,51.76
2018-08-11T04:34:34.049Z,50.96
2018-08-11T04:35:34.107Z,51.16
2018-08-11T04:36:34.061Z,51.26
2018-08-11T04:37:34.028Z,51.06
2018-08-11T04:38:34.003Z,51.18
2018-08-11T04:39:33.992Z,51.16
2018-08-11T04:40:34.028Z,51.26
2018-08-11T04:41:33.969Z,51.06
2018-08-11T04:42:33.972Z,51.28
2018-08-11T04:43:33.950Z,51.16
2018-08-11T04:44:33.935Z,51.26
2018-08-11T04:45:33.978Z,51.26
2018-08-11T04:46:33.920Z,50.98
2018-08-11T04:47:33.904Z,51.86
2018-08-11T04:48:33.893Z,51.89
2018-08-11T04:49:33.883Z,50.85
2018-08-11T04:50:33.926Z,51.06
2018-08-11T04:51:33.858Z,51.06
2018-08-11T04:52:33.846Z,50.85
2018-08-11T04:53:33.841Z,50.85
2018-08-11T04:54:33.821Z,50.65
2018-08-11T04:55:33.863Z,50.96
2018-08-11T04:56:33.802Z,51.03
2018-08-11T04:57:33.790Z,51.14
2018-08-11T04:58:33.776Z,51.06
2018-08-11T04:59:33.769Z,51.03
2018-08-11T05:00:33.813Z,51.14
2018-08-11T05:01:33.752Z,51.14
2018-08-11T05:02:33.733Z,50.93
2018-08-11T05:03:33.729Z,51.14
2018-08-11T05:04:33.716Z,51.14
2018-08-11T05:05:33.747Z,51.03
2018-08-11T05:06:33.689Z,50.33
2018-08-11T05:07:33.679Z,50.63
2018-08-11T05:08:33.664Z,50.51
2018-08-11T05:09:33.661Z,49.80
2018-08-11T05:10:33.691Z,49.70
2018-08-11T05:11:33.634Z,49.50
2018-08-11T05:12:33.620Z,50.31
2018-08-11T05:13:33.610Z,50.00
2018-08-11T05:14:33.603Z,49.90
2018-08-11T05:15:33.635Z,50.20
2018-08-11T05:16:33.581Z,49.60
2018-08-11T05:17:33.566Z,49.40
2018-08-11T05:18:33.553Z,49.10
2018-08-11T05:19:33.547Z,49.37
2018-08-11T05:20:33.533Z,49.07
2018-08-11T05:21:33.574Z,48.67
2018-08-11T05:22:33.509Z,48.67
2018-08-11T05:23:33.497Z,48.57
2018-08-11T05:24:33.492Z,48.77
2018-08-11T05:25:33.477Z,48.77
2018-08-11T05:26:33.509Z,48.07
2018-08-11T05:27:33.455Z,48.87
2018-08-11T05:28:33.441Z,48.27
2018-08-11T05:29:33.431Z,48.97
2018-08-11T05:30:33.419Z,49.07
2018-08-11T05:31:33.454Z,49.05
2018-08-11T05:32:33.397Z,48.25
2018-08-11T05:33:33.386Z,48.95
2018-08-11T05:34:33.375Z,48.75
2018-08-11T05:35:33.378Z,48.35
2018-08-11T05:36:33.396Z,48.05
2018-08-11T05:37:33.342Z,48.12
2018-08-11T05:38:33.330Z,48.22
2018-08-11T05:39:33.323Z,47.72
2018-08-11T05:40:33.311Z,48.02
2018-08-11T05:41:33.362Z,48.32
2018-08-11T05:42:33.288Z,48.00
2018-08-11T05:43:33.279Z,48.43
2018-08-11T05:44:33.265Z,47.42
2018-08-11T05:45:33.253Z,48.12
2018-08-11T05:46:33.290Z,47.80
2018-08-11T05:47:33.235Z,48.20
2018-08-11T05:48:33.223Z,47.70
2018-08-11T05:49:33.223Z,47.60
2018-08-11T05:50:33.198Z,47.60
2018-08-11T05:51:33.231Z,47.50
2018-08-11T05:52:33.183Z,48.02
2018-08-11T05:53:33.164Z,47.50
2018-08-11T05:54:33.153Z,47.62
2018-08-11T05:55:33.156Z,47.90
2018-08-11T05:56:33.179Z,48.00
2018-08-11T05:57:33.119Z,48.20
2018-08-11T05:58:33.112Z,47.80
2018-08-11T05:59:33.098Z,47.70
2018-08-11T06:00:33.089Z,47.97
2018-08-11T06:01:33.166Z,48.18
2018-08-11T06:02:33.067Z,47.60
2018-08-11T06:03:33.058Z,47.70
2018-08-11T06:04:33.045Z,48.20
2018-08-11T06:05:33.032Z,48.10
2018-08-11T06:06:33.065Z,47.77
2018-08-11T06:07:33.018Z,47.65
2018-08-11T06:08:32.998Z,46.95
2018-08-11T06:09:32.997Z,46.33
2018-08-11T06:10:32.982Z,46.62
2018-08-11T06:11:33.017Z,46.93
2018-08-11T06:12:32.956Z,46.42
2018-08-11T06:13:32.959Z,46.50
2018-08-11T06:14:32.936Z,46.30
2018-08-11T06:15:32.923Z,46.81
2018-08-11T06:16:32.955Z,46.93
2018-08-11T06:17:32.907Z,46.83
2018-08-11T06:18:32.917Z,46.73
2018-08-11T06:19:32.883Z,47.00
2018-08-11T06:20:32.869Z,46.70
2018-08-11T06:21:32.908Z,46.91
2018-08-11T06:22:32.844Z,47.31
2018-08-11T06:23:32.832Z,46.81
2018-08-11T06:24:32.826Z,46.91
2018-08-11T06:25:32.813Z,46.88
2018-08-11T06:26:32.844Z,46.38
2018-08-11T06:27:32.797Z,46.28
2018-08-11T06:28:32.779Z,46.38
2018-08-11T06:29:32.771Z,46.28
2018-08-11T06:30:32.758Z,46.38
2018-08-11T06:31:32.885Z,46.78
2018-08-11T06:32:32.734Z,46.48
2018-08-11T06:33:32.722Z,46.68
2018-08-11T06:34:32.711Z,46.88
2018-08-11T06:35:32.698Z,46.38
2018-08-11T06:36:32.734Z,46.48
2018-08-11T06:37:32.676Z,46.48
2018-08-11T06:38:32.668Z,46.78
2018-08-11T06:39:32.656Z,46.58
2018-08-11T06:40:32.657Z,46.88
2018-08-11T06:41:32.702Z,46.56
2018-08-11T06:42:32.625Z,45.46
2018-08-11T06:43:32.609Z,45.54
2018-08-11T06:44:32.601Z,45.64
2018-08-11T06:45:32.589Z,45.34
2018-08-11T06:46:32.642Z,44.82
2018-08-11T06:47:32.583Z,45.01
2018-08-11T06:48:32.558Z,44.32
2018-08-11T06:49:32.545Z,44.79
2018-08-11T06:50:32.537Z,43.67
2018-08-11T06:51:32.567Z,43.79
2018-08-11T06:52:32.514Z,43.87
2018-08-11T06:53:32.518Z,44.79
2018-08-11T06:54:32.519Z,44.70
2018-08-11T06:55:32.537Z,43.91
2018-08-11T06:56:32.536Z,44.92
2018-08-11T06:57:32.459Z,45.24
2018-08-11T06:58:32.449Z,45.34
2018-08-11T06:59:32.453Z,45.43
2018-08-11T07:00:32.423Z,45.86
2018-08-11T07:01:32.463Z,45.26
2018-08-11T07:02:32.413Z,45.43
2018-08-11T07:03:32.396Z,45.06
2018-08-11T07:04:32.393Z,45.06
2018-08-11T07:05:32.381Z,45.86
2018-08-11T07:06:32.479Z,45.36
2018-08-11T07:07:32.347Z,45.46
2018-08-11T07:08:32.336Z,45.76
2018-08-11T07:09:32.324Z,44.76
2018-08-11T07:10:32.313Z,45.84
2018-08-11T07:11:32.347Z,45.43
2018-08-11T07:12:32.292Z,44.93
2018-08-11T07:13:32.281Z,45.34
2018-08-11T07:14:32.289Z,44.92
2018-08-11T07:15:32.259Z,44.51
2018-08-11T07:16:32.303Z,44.82
2018-08-11T07:17:32.253Z,43.79
2018-08-11T07:18:32.225Z,44.29
2018-08-11T07:19:32.229Z,44.49
2018-08-11T07:20:32.211Z,44.42
2018-08-11T07:21:32.242Z,44.70
2018-08-11T07:22:32.191Z,45.09
2018-08-11T07:23:32.180Z,45.31
2018-08-11T07:24:32.157Z,46.24
2018-08-11T07:25:32.156Z,46.84
2018-08-11T07:26:32.248Z,46.36
2018-08-11T07:27:32.125Z,46.76
2018-08-11T07:28:32.129Z,46.56
2018-08-11T07:29:32.105Z,46.86
2018-08-11T07:30:32.097Z,46.36
2018-08-11T07:31:32.222Z,46.66
2018-08-11T07:32:32.114Z,46.34
2018-08-11T07:33:32.058Z,46.54
2018-08-11T07:34:32.077Z,46.66
2018-08-11T07:35:32.040Z,47.16
2018-08-11T07:36:32.185Z,46.86
2018-08-11T07:37:32.055Z,46.66
2018-08-11T07:38:32.022Z,46.66
2018-08-11T07:39:31.993Z,46.46
2018-08-11T07:40:31.980Z,46.54
2018-08-11T07:41:31.968Z,46.84
2018-08-11T07:42:32.001Z,46.62
2018-08-11T07:43:31.944Z,46.94
2018-08-11T07:44:31.932Z,46.66
2018-08-11T07:45:31.922Z,47.28
2018-08-11T07:46:31.911Z,47.38
2018-08-11T07:47:32.006Z,47.28
2018-08-11T07:48:31.936Z,47.16
2018-08-11T07:49:31.882Z,47.56
2018-08-11T07:50:31.883Z,46.96
2018-08-11T07:51:31.857Z,46.44
2018-08-11T07:52:31.891Z,46.74
2018-08-11T07:53:31.834Z,46.84
2018-08-11T07:54:31.821Z,46.54
2018-08-11T07:55:31.812Z,46.42
2018-08-11T07:56:31.801Z,47.04
2018-08-11T07:57:31.833Z,46.34
2018-08-11T07:58:31.774Z,46.31
2018-08-11T07:59:31.766Z,45.94
2018-08-11T08:00:31.753Z,46.24
2018-08-11T08:01:31.741Z,46.22
2018-08-11T08:02:31.777Z,46.31
2018-08-11T08:03:31.722Z,46.14
2018-08-11T08:04:31.711Z,46.72
2018-08-11T08:05:31.697Z,46.22
2018-08-11T08:06:31.685Z,46.81
2018-08-11T08:07:31.727Z,46.44
2018-08-11T08:08:31.666Z,47.24
2018-08-11T08:09:31.656Z,46.74
2018-08-11T08:10:31.646Z,46.74
2018-08-11T08:11:31.631Z,46.44
2018-08-11T08:12:31.671Z,46.62
2018-08-11T08:13:31.610Z,45.51
2018-08-11T08:14:31.599Z,46.51
2018-08-11T08:15:31.598Z,45.09
2018-08-11T08:16:31.594Z,45.37
2018-08-11T08:17:31.611Z,45.09
2018-08-11T08:18:31.549Z,45.37
2018-08-11T08:19:31.538Z,45.27
2018-08-11T08:20:31.533Z,44.85
2018-08-11T08:21:31.516Z,44.45
2018-08-11T08:22:31.557Z,43.83
2018-08-11T08:23:31.505Z,43.33
2018-08-11T08:24:31.484Z,43.21
2018-08-11T08:25:31.470Z,42.57
2018-08-11T08:26:31.772Z,42.47
2018-08-11T08:27:31.494Z,42.37
2018-08-11T08:28:31.444Z,42.77
2018-08-11T08:29:31.434Z,42.89
2018-08-11T08:30:31.416Z,43.29
2018-08-11T08:31:31.406Z,43.29
2018-08-11T08:32:31.460Z,43.29
2018-08-11T08:33:31.384Z,42.87
2018-08-11T08:34:31.372Z,42.57
2018-08-11T08:35:31.363Z,42.47
2018-08-11T08:36:31.348Z,42.49
2018-08-11T08:37:31.385Z,42.87
2018-08-11T08:38:31.329Z,42.87
2018-08-11T08:39:31.318Z,43.37
2018-08-11T08:40:31.332Z,43.57
2018-08-11T08:41:31.299Z,42.87
2018-08-11T08:42:31.330Z,43.09
2018-08-11T08:43:31.275Z,42.79
2018-08-11T08:44:31.275Z,42.97
2018-08-11T08:45:31.252Z,42.97
2018-08-11T08:46:31.279Z,42.37
2018-08-11T08:47:31.362Z,42.97
2018-08-11T08:48:31.219Z,42.87
2018-08-11T08:49:31.212Z,42.37
2018-08-11T08:50:31.204Z,42.29
2018-08-11T08:51:31.184Z,43.59
2018-08-11T08:52:31.222Z,43.59
2018-08-11T08:53:31.164Z,43.59
2018-08-11T08:54:31.153Z,43.07
2018-08-11T08:55:31.143Z,43.59
2018-08-11T08:56:31.143Z,43.17
2018-08-11T08:57:31.170Z,43.27
2018-08-11T08:58:31.109Z,43.17
2018-08-11T08:59:31.097Z,43.89
2018-08-11T09:00:31.093Z,43.59
2018-08-11T09:01:31.077Z,43.79
2018-08-11T09:02:31.115Z,43.57
2018-08-11T09:03:31.056Z,43.79
2018-08-11T09:04:31.048Z,43.59
2018-08-11T09:05:31.031Z,43.09
2018-08-11T09:06:31.023Z,43.39
2018-08-11T09:07:31.055Z,43.29
2018-08-11T09:08:30.999Z,43.59
2018-08-11T09:09:30.987Z,43.19
2018-08-11T09:10:30.976Z,43.47
2018-08-11T09:11:30.966Z,43.07
2018-08-11T09:12:30.997Z,43.37
2018-08-11T09:13:30.943Z,43.57
2018-08-11T09:14:30.931Z,43.47
2018-08-11T09:15:30.920Z,43.59
2018-08-11T09:16:30.910Z,43.59
2018-08-11T09:17:30.946Z,43.19
2018-08-11T09:18:30.889Z,43.49
2018-08-11T09:19:30.954Z,44.38
2018-08-11T09:20:30.868Z,43.79
2018-08-11T09:21:30.855Z,43.69
2018-08-11T09:22:30.910Z,43.77
2018-08-11T09:23:30.835Z,43.39
2018-08-11T09:24:30.822Z,42.97
2018-08-11T09:25:30.814Z,42.77
2018-08-11T09:26:30.801Z,43.37
2018-08-11T09:27:30.833Z,43.57
2018-08-11T09:28:30.777Z,43.47
2018-08-11T09:29:30.769Z,43.97
2018-08-11T09:30:30.757Z,42.85
2018-08-11T09:31:30.745Z,42.27
2018-08-11T09:32:30.781Z,42.55
2018-08-11T09:33:30.727Z,42.45
2018-08-11T09:34:30.714Z,42.35
2018-08-11T09:35:30.701Z,42.03
2018-08-11T09:36:30.713Z,42.23
2018-08-11T09:37:30.728Z,41.74
2018-08-11T09:38:30.745Z,42.33
2018-08-11T09:39:30.658Z,41.44
2018-08-11T09:40:30.646Z,41.24
2018-08-11T09:41:30.641Z,41.71
2018-08-11T09:42:30.623Z,40.72
2018-08-11T09:43:30.659Z,40.62
2018-08-11T09:44:30.601Z,40.84
2018-08-11T09:45:30.589Z,41.46
2018-08-11T09:46:30.582Z,42.45
2018-08-11T09:47:30.569Z,42.37
2018-08-11T09:48:30.602Z,42.35
2018-08-11T09:49:30.547Z,42.45
2018-08-11T09:50:30.535Z,41.16
2018-08-11T09:51:30.530Z,42.23
2018-08-11T09:52:30.515Z,41.03
2018-08-11T09:53:30.589Z,40.44
2018-08-11T09:54:30.524Z,40.54
2018-08-11T09:55:30.482Z,40.44
2018-08-11T09:56:30.469Z,40.34
2018-08-11T09:57:30.463Z,40.16
2018-08-11T09:58:30.497Z,40.46
2018-08-11T09:59:30.438Z,40.16
2018-08-11T10:00:30.426Z,40.24
2018-08-11T10:01:30.414Z,40.34
2018-08-11T10:02:30.403Z,39.94
2018-08-11T10:03:30.441Z,40.66
2018-08-11T10:04:30.381Z,40.26
2018-08-11T10:05:30.374Z,40.36
2018-08-11T10:06:30.358Z,40.36
2018-08-11T10:07:30.351Z,40.16
2018-08-11T10:08:30.385Z,40.38
2018-08-11T10:09:30.328Z,40.68
2018-08-11T10:10:30.345Z,40.28
2018-08-11T10:11:30.307Z,40.06
2018-08-11T10:12:30.306Z,39.84
2018-08-11T10:13:30.331Z,38.82
2018-08-11T10:14:30.278Z,38.73
2018-08-11T10:15:30.262Z,38.11
2018-08-11T10:16:30.251Z,38.01
2018-08-11T10:17:30.263Z,38.91
2018-08-11T10:18:30.363Z,38.29
2018-08-11T10:19:30.241Z,37.58
2018-08-11T10:20:30.211Z,37.77
2018-08-11T10:21:30.219Z,37.60
2018-08-11T10:22:30.185Z,38.29
2018-08-11T10:23:30.948Z,37.92
2018-08-11T10:24:30.160Z,38.61
2018-08-11T10:25:30.157Z,38.73
2018-08-11T10:26:30.152Z,38.54
2018-08-11T10:27:30.128Z,39.25
2018-08-11T10:28:30.172Z,38.75
2018-08-11T10:29:30.123Z,38.93
2018-08-11T10:30:30.094Z,38.73
2018-08-11T10:31:30.086Z,38.51
2018-08-11T10:32:30.073Z,39.11
2018-08-11T10:33:30.110Z,37.90
2018-08-11T10:34:30.096Z,37.99
2018-08-11T10:35:30.052Z,38.39
2018-08-11T10:36:30.029Z,37.77
2018-08-11T10:37:30.019Z,37.56
2018-08-11T10:38:30.052Z,37.58
2018-08-11T10:39:29.998Z,37.60
2018-08-11T10:40:29.989Z,38.20
2018-08-11T10:41:29.980Z,38.81
2018-08-11T10:42:29.965Z,38.11
2018-08-11T10:43:30.003Z,38.41
2018-08-11T10:44:29.943Z,38.41
2018-08-11T10:45:29.931Z,38.21
2018-08-11T10:46:29.931Z,37.90
2018-08-11T10:47:29.937Z,38.61
2018-08-11T10:48:29.946Z,38.81
2018-08-11T10:49:29.893Z,38.71
2018-08-11T10:50:29.877Z,38.59
2018-08-11T10:51:29.865Z,38.79
2018-08-11T10:52:29.857Z,38.59
2018-08-11T10:53:29.888Z,37.48
2018-08-11T10:54:29.832Z,37.58
2018-08-11T10:55:29.825Z,37.79
2018-08-11T10:56:29.813Z,37.38
2018-08-11T10:57:29.801Z,37.58
2018-08-11T10:58:29.839Z,37.68
2018-08-11T10:59:29.811Z,37.77
2018-08-11T11:00:29.766Z,37.60
2018-08-11T11:01:29.763Z,37.40
2018-08-11T11:02:29.746Z,38.51
2018-08-11T11:03:29.783Z,38.71
2018-08-11T11:04:29.742Z,38.21
2018-08-11T11:05:29.715Z,38.81
2018-08-11T11:06:29.703Z,38.21
2018-08-11T11:07:29.690Z,38.71
2018-08-11T11:08:29.780Z,38.71
2018-08-11T11:09:29.675Z,38.71
2018-08-11T11:10:29.658Z,38.20
2018-08-11T11:11:29.646Z,38.41
2018-08-11T11:12:29.636Z,38.01
2018-08-11T11:13:29.669Z,38.31
2018-08-11T11:14:29.614Z,38.31
2018-08-11T11:15:29.614Z,38.59
2018-08-11T11:16:29.590Z,38.41
2018-08-11T11:17:29.581Z,37.70
2018-08-11T11:18:29.629Z,38.79
2018-08-11T11:19:29.561Z,37.79
2018-08-11T11:20:29.548Z,37.60
2018-08-11T11:21:29.537Z,37.28
2018-08-11T11:22:29.527Z,37.68
2018-08-11T11:23:29.567Z,37.10
2018-08-11T11:24:29.508Z,36.78
2018-08-11T11:25:29.504Z,36.68
2018-08-11T11:26:29.486Z,36.07
2018-08-11T11:27:29.479Z,35.75
2018-08-11T11:28:29.514Z,35.06
2018-08-11T11:29:29.449Z,35.06
2018-08-11T11:30:29.444Z,35.64
2018-08-11T11:31:29.437Z,35.34
2018-08-11T11:32:29.418Z,35.24
2018-08-11T11:33:29.409Z,35.24
2018-08-11T11:34:29.444Z,35.24
2018-08-11T11:35:29.385Z,35.64
2018-08-11T11:36:29.375Z,35.22
2018-08-11T11:37:29.363Z,35.83
2018-08-11T11:38:29.357Z,35.52
2018-08-11T11:39:29.390Z,35.24
2018-08-11T11:40:29.330Z,35.22
2018-08-11T11:41:29.321Z,34.63
2018-08-11T11:42:29.313Z,33.54
2018-08-11T11:43:29.377Z,34.63
2018-08-11T11:44:29.336Z,34.41
2018-08-11T11:45:29.281Z,34.63
2018-08-11T11:46:29.266Z,35.04
2018-08-11T11:47:29.256Z,34.76
2018-08-11T11:48:29.243Z,35.36
2018-08-11T11:49:29.278Z,35.46
2018-08-11T11:50:29.246Z,35.16
2018-08-11T11:51:29.209Z,34.76
2018-08-11T11:52:29.197Z,35.17
2018-08-11T11:53:29.187Z,35.08
2018-08-11T11:54:29.221Z,34.48
2018-08-11T11:55:29.164Z,34.18
2018-08-11T11:56:29.159Z,33.69
2018-08-11T11:57:29.143Z,33.67
2018-08-11T11:58:29.136Z,32.76
2018-08-11T11:59:29.171Z,31.32
2018-08-11T12:00:29.113Z,30.41
2018-08-11T12:01:29.116Z,30.90
2018-08-11T12:02:29.091Z,30.08
2018-08-11T12:03:29.078Z,30.79
2018-08-11T12:04:29.112Z,31.31
2018-08-11T12:05:29.059Z,32.12
2018-08-11T12:06:29.048Z,30.77
2018-08-11T12:07:29.037Z,29.55
2018-08-11T12:08:29.028Z,29.23
2018-08-11T12:09:29.059Z,28.62
2018-08-11T12:10:29.007Z,29.37
2018-08-11T12:11:28.993Z,28.08
2018-08-11T12:12:28.984Z,27.47
2018-08-11T12:13:28.972Z,27.25
2018-08-11T12:14:29.011Z,26.74
2018-08-11T12:15:28.953Z,26.74
2018-08-11T12:16:28.955Z,26.12
2018-08-11T12:17:28.928Z,26.21
2018-08-11T12:18:28.922Z,26.42
2018-08-11T12:19:28.996Z,26.70
2018-08-11T12:20:28.898Z,26.51
2018-08-11T12:21:28.890Z,26.03
2018-08-11T12:22:28.878Z,25.33
2018-08-11T12:23:28.867Z,26.84
2018-08-11T12:24:28.904Z,27.23
2018-08-11T12:25:28.844Z,25.74
2018-08-11T12:26:28.840Z,26.74
2018-08-11T12:27:28.847Z,26.73
2018-08-11T12:28:28.814Z,26.51
2018-08-11T12:29:29.185Z,24.13
2018-08-11T12:30:28.795Z,23.83
2018-08-11T12:31:28.782Z,25.23
2018-08-11T12:32:28.776Z,25.96
2018-08-11T12:33:28.766Z,26.84
2018-08-11T12:34:28.797Z,25.15
2018-08-11T12:35:28.743Z,24.71
2018-08-11T12:36:28.736Z,23.82
2018-08-11T12:37:28.732Z,23.32
2018-08-11T12:38:28.715Z,23.02
2018-08-11T12:39:28.752Z,22.53
2018-08-11T12:40:28.695Z,22.92
2018-08-11T12:41:28.684Z,22.81
2018-08-11T12:42:28.686Z,22.41
2018-08-11T12:43:28.667Z,22.31
2018-08-11T12:44:28.699Z,22.41
2018-08-11T12:45:28.653Z,21.66
2018-08-11T12:46:28.632Z,22.77
2018-08-11T12:47:28.623Z,23.86
2018-08-11T12:48:28.616Z,25.18
2018-08-11T12:49:28.719Z,25.68
2018-08-11T12:50:28.598Z,25.70
2018-08-11T12:51:28.584Z,25.90
2018-08-11T12:52:28.567Z,26.82
2018-08-11T12:53:28.581Z,27.73
2018-08-11T12:54:28.592Z,28.64
2018-08-11T12:55:28.539Z,28.16
2018-08-11T12:56:28.527Z,29.47
2018-08-11T12:57:28.516Z,30.27
2018-08-11T12:58:28.504Z,30.68
2018-08-11T12:59:28.541Z,30.60
2018-08-11T13:00:28.484Z,31.90
2018-08-11T13:01:28.494Z,31.71
2018-08-11T13:02:28.465Z,31.42
2018-08-11T13:03:28.455Z,31.31
2018-08-11T13:04:28.488Z,32.79
2018-08-11T13:05:28.430Z,32.00
2018-08-11T13:06:28.421Z,31.60
2018-08-11T13:07:28.410Z,31.52
2018-08-11T13:08:28.401Z,31.31
2018-08-11T13:09:28.434Z,30.41
2018-08-11T13:10:28.377Z,30.91
2018-08-11T13:11:28.373Z,30.62
2018-08-11T13:12:28.353Z,30.62
2018-08-11T13:13:28.343Z,32.12
2018-08-11T13:14:28.384Z,31.92
2018-08-11T13:15:28.324Z,31.01
2018-08-11T13:16:28.312Z,30.71
2018-08-11T13:17:28.306Z,30.52
2018-08-11T13:18:28.290Z,30.12
2018-08-11T13:19:28.327Z,30.52
2018-08-11T13:20:28.269Z,30.52
2018-08-11T13:21:28.286Z,29.72
2018-08-11T13:22:28.262Z,29.54
2018-08-11T13:23:28.235Z,29.72
2018-08-11T13:24:28.273Z,30.02
2018-08-11T13:25:28.216Z,29.03
2018-08-11T13:26:28.207Z,28.73
2018-08-11T13:27:28.201Z,28.93
2018-08-11T13:28:28.182Z,29.44
2018-08-11T13:29:28.226Z,29.24
2018-08-11T13:30:28.160Z,29.55
2018-08-11T13:31:28.151Z,29.64
2018-08-11T13:32:28.149Z,30.73
2018-08-11T13:33:28.134Z,31.13
2018-08-11T13:34:28.170Z,31.32
2018-08-11T13:35:28.106Z,30.65
2018-08-11T13:36:28.095Z,30.65
2018-08-11T13:37:28.085Z,31.04
2018-08-11T13:38:28.091Z,31.54
2018-08-11T13:39:28.106Z,31.24
2018-08-11T13:40:28.053Z,31.74
2018-08-11T13:41:28.042Z,32.14
2018-08-11T13:42:28.030Z,31.54
2018-08-11T13:43:28.019Z,32.02
2018-08-11T13:44:28.058Z,32.12
2018-08-11T13:45:28.025Z,32.12
2018-08-11T13:46:27.991Z,31.62
2018-08-11T13:47:27.982Z,31.72
2018-08-11T13:48:27.966Z,32.43
2018-08-11T13:49:27.999Z,32.61
2018-08-11T13:50:27.962Z,31.24
2018-08-11T13:51:27.934Z,31.34
2018-08-11T13:52:27.920Z,31.54